Crimcrest, Texas
Current Conditions -  °F | °C
As of 5:55 PM on Sunday 23 Nov 2014 (Local Time) from KRFI Reporting Station
Clear Clear  
Wind Chill: 67°   Ceiling: Unl
Heat Index: 67°   Visibility: 10mi
Dew Point: 48°   Wind: 3mph
Humidity: 49%   Direction: 210°SSW
Pressure: 29.5"   Gusts: NA
Location:  32.1449°N, 94.7416°W
Report Text: KRFI 232355Z AUTO 21003KT 10SM CLR 20/09 A2950 RMK AO2 T01970087 10235 20196
Loading
Personal Weather Stations






























Interactive Weather Map New forecast layout! Learn more

10-Day Weather Forecast

Advertisements
Track Severe Weather on mobile